sensor_id;sensor_type;location;lat;lon;timestamp;temperature;humidity
68922;DHT22;55959;51.244;5.724;2022-11-21T00:00:48;10.70;75.20
68922;DHT22;55959;51.244;5.724;2022-11-21T00:03:15;10.70;75.30
68922;DHT22;55959;51.244;5.724;2022-11-21T00:05:43;10.70;75.20
68922;DHT22;55959;51.244;5.724;2022-11-21T00:08:12;10.70;75.20
68922;DHT22;55959;51.244;5.724;2022-11-21T00:10:40;10.60;75.20
68922;DHT22;55959;51.244;5.724;2022-11-21T00:13:10;10.60;75.30
68922;DHT22;55959;51.244;5.724;2022-11-21T00:15:37;10.70;75.30
68922;DHT22;55959;51.244;5.724;2022-11-21T00:18:03;10.60;75.20
68922;DHT22;55959;51.244;5.724;2022-11-21T00:20:31;10.60;75.20
68922;DHT22;55959;51.244;5.724;2022-11-21T00:22:57;10.60;75.10
68922;DHT22;55959;51.244;5.724;2022-11-21T00:25:23;10.60;75.10
68922;DHT22;55959;51.244;5.724;2022-11-21T00:27:48;10.60;75.10
68922;DHT22;55959;51.244;5.724;2022-11-21T00:30:14;10.60;75.20
68922;DHT22;55959;51.244;5.724;2022-11-21T00:32:40;10.60;75.20
68922;DHT22;55959;51.244;5.724;2022-11-21T00:35:06;10.60;75.20
68922;DHT22;55959;51.244;5.724;2022-11-21T00:37:33;10.60;75.10
68922;DHT22;55959;51.244;5.724;2022-11-21T00:39:59;10.60;75.10
68922;DHT22;55959;51.244;5.724;2022-11-21T00:42:24;10.60;75.10
68922;DHT22;55959;51.244;5.724;2022-11-21T00:44:50;10.60;75.00
68922;DHT22;55959;51.244;5.724;2022-11-21T00:47:16;10.60;74.90
68922;DHT22;55959;51.244;5.724;2022-11-21T00:49:42;10.50;74.90
68922;DHT22;55959;51.244;5.724;2022-11-21T00:52:07;10.50;74.90
68922;DHT22;55959;51.244;5.724;2022-11-21T00:54:33;10.50;74.80
68922;DHT22;55959;51.244;5.724;2022-11-21T00:56:59;10.50;74.80
68922;DHT22;55959;51.244;5.724;2022-11-21T00:59:25;10.50;74.90
68922;DHT22;55959;51.244;5.724;2022-11-21T01:01:50;10.50;74.90
68922;DHT22;55959;51.244;5.724;2022-11-21T01:04:16;10.50;74.90
68922;DHT22;55959;51.244;5.724;2022-11-21T01:06:42;10.40;74.80
68922;DHT22;55959;51.244;5.724;2022-11-21T01:09:08;10.40;74.80
68922;DHT22;55959;51.244;5.724;2022-11-21T01:11:33;10.40;74.80
68922;DHT22;55959;51.244;5.724;2022-11-21T01:13:59;10.40;74.90
68922;DHT22;55959;51.244;5.724;2022-11-21T01:16:26;10.40;74.90
68922;DHT22;55959;51.244;5.724;2022-11-21T01:18:53;10.40;74.90
68922;DHT22;55959;51.244;5.724;2022-11-21T01:21:25;10.40;75.10
68922;DHT22;55959;51.244;5.724;2022-11-21T01:23:55;10.40;75.10
68922;DHT22;55959;51.244;5.724;2022-11-21T01:26:24;10.40;75.10
68922;DHT22;55959;51.244;5.724;2022-11-21T01:28:51;10.40;75.20
68922;DHT22;55959;51.244;5.724;2022-11-21T01:33:49;10.40;75.40
68922;DHT22;55959;51.244;5.724;2022-11-21T01:36:16;10.40;75.50
68922;DHT22;55959;51.244;5.724;2022-11-21T01:38:46;10.40;75.50
68922;DHT22;55959;51.244;5.724;2022-11-21T01:41:16;10.40;75.50
68922;DHT22;55959;51.244;5.724;2022-11-21T01:43:47;10.40;75.30
68922;DHT22;55959;51.244;5.724;2022-11-21T01:46:15;10.40;75.30
68922;DHT22;55959;51.244;5.724;2022-11-21T01:51:37;10.40;75.10
68922;DHT22;55959;51.244;5.724;2022-11-21T01:54:17;10.40;75.10
68922;DHT22;55959;51.244;5.724;2022-11-21T01:57:00;10.40;75.10
68922;DHT22;55959;51.244;5.724;2022-11-21T01:59:58;10.30;74.90
68922;DHT22;55959;51.244;5.724;2022-11-21T02:02:30;10.30;74.90
68922;DHT22;55959;51.244;5.724;2022-11-21T02:05:00;10.30;74.90
68922;DHT22;55959;51.244;5.724;2022-11-21T02:07:30;10.30;75.00
68922;DHT22;55959;51.244;5.724;2022-11-21T02:10:01;10.30;75.10
68922;DHT22;55959;51.244;5.724;2022-11-21T02:12:43;10.20;75.10
68922;DHT22;55959;51.244;5.724;2022-11-21T02:15:11;10.20;75.20
68922;DHT22;55959;51.244;5.724;2022-11-21T02:17:37;10.20;75.10
68922;DHT22;55959;51.244;5.724;2022-11-21T02:20:09;10.20;75.10
68922;DHT22;55959;51.244;5.724;2022-11-21T02:23:00;10.20;75.20
68922;DHT22;55959;51.244;5.724;2022-11-21T02:25:29;10.20;75.20
68922;DHT22;55959;51.244;5.724;2022-11-21T02:27:58;10.20;75.20
68922;DHT22;55959;51.244;5.724;2022-11-21T02:30:27;10.20;75.30
68922;DHT22;55959;51.244;5.724;2022-11-21T02:32:54;10.10;75.30
68922;DHT22;55959;51.244;5.724;2022-11-21T02:35:20;10.10;75.40
68922;DHT22;55959;51.244;5.724;2022-11-21T02:37:56;10.10;75.50
68922;DHT22;55959;51.244;5.724;2022-11-21T02:40:26;10.10;75.70
68922;DHT22;55959;51.244;5.724;2022-11-21T02:43:24;10.10;75.80
68922;DHT22;55959;51.244;5.724;2022-11-21T02:46:00;10.10;76.00
68922;DHT22;55959;51.244;5.724;2022-11-21T02:48:26;10.00;76.00
68922;DHT22;55959;51.244;5.724;2022-11-21T02:50:52;10.00;76.20
68922;DHT22;55959;51.244;5.724;2022-11-21T02:53:18;10.10;76.30
68922;DHT22;55959;51.244;5.724;2022-11-21T02:55:44;10.00;76.30
68922;DHT22;55959;51.244;5.724;2022-11-21T02:58:11;10.00;76.40
68922;DHT22;55959;51.244;5.724;2022-11-21T03:00:39;10.00;76.50
68922;DHT22;55959;51.244;5.724;2022-11-21T03:03:06;10.00;76.50
68922;DHT22;55959;51.244;5.724;2022-11-21T03:05:32;10.00;76.60
68922;DHT22;55959;51.244;5.724;2022-11-21T03:07:58;10.00;76.50
68922;DHT22;55959;51.244;5.724;2022-11-21T03:10:24;10.00;76.50
68922;DHT22;55959;51.244;5.724;2022-11-21T03:12:49;10.00;76.50
68922;DHT22;55959;51.244;5.724;2022-11-21T03:15:15;10.00;76.50
68922;DHT22;55959;51.244;5.724;2022-11-21T03:17:41;10.00;76.30
68922;DHT22;55959;51.244;5.724;2022-11-21T03:20:08;10.00;76.20
68922;DHT22;55959;51.244;5.724;2022-11-21T03:22:34;10.00;76.10
68922;DHT22;55959;51.244;5.724;2022-11-21T03:25:01;10.00;76.10
68922;DHT22;55959;51.244;5.724;2022-11-21T03:27:27;10.00;76.00
68922;DHT22;55959;51.244;5.724;2022-11-21T03:29:53;10.00;76.00
68922;DHT22;55959;51.244;5.724;2022-11-21T03:32:18;10.00;76.10
68922;DHT22;55959;51.244;5.724;2022-11-21T03:34:44;10.00;76.90
68922;DHT22;55959;51.244;5.724;2022-11-21T03:37:10;10.00;76.10
68922;DHT22;55959;51.244;5.724;2022-11-21T03:39:36;10.00;76.10
68922;DHT22;55959;51.244;5.724;2022-11-21T03:42:01;10.00;76.20
68922;DHT22;55959;51.244;5.724;2022-11-21T03:44:28;10.00;76.20
68922;DHT22;55959;51.244;5.724;2022-11-21T03:46:54;9.90;76.10
68922;DHT22;55959;51.244;5.724;2022-11-21T03:49:20;9.90;76.10
68922;DHT22;55959;51.244;5.724;2022-11-21T03:51:45;9.90;76.10
68922;DHT22;55959;51.244;5.724;2022-11-21T03:54:11;9.90;76.10
68922;DHT22;55959;51.244;5.724;2022-11-21T03:56:37;9.90;76.10
68922;DHT22;55959;51.244;5.724;2022-11-21T03:59:04;9.90;76.10
68922;DHT22;55959;51.244;5.724;2022-11-21T04:01:30;9.80;75.90
68922;DHT22;55959;51.244;5.724;2022-11-21T04:03:57;9.80;75.90
68922;DHT22;55959;51.244;5.724;2022-11-21T04:06:23;9.80;75.90
68922;DHT22;55959;51.244;5.724;2022-11-21T04:08:49;9.80;75.90
68922;DHT22;55959;51.244;5.724;2022-11-21T04:11:17;9.80;75.90
68922;DHT22;55959;51.244;5.724;2022-11-21T04:13:45;9.80;75.90
68922;DHT22;55959;51.244;5.724;2022-11-21T04:16:11;9.80;75.90
68922;DHT22;55959;51.244;5.724;2022-11-21T04:18:38;9.70;76.00
68922;DHT22;55959;51.244;5.724;2022-11-21T04:21:06;9.70;75.80
68922;DHT22;55959;51.244;5.724;2022-11-21T04:23:32;9.70;75.80
68922;DHT22;55959;51.244;5.724;2022-11-21T04:25:58;9.70;75.80
68922;DHT22;55959;51.244;5.724;2022-11-21T04:28:23;9.70;75.80
68922;DHT22;55959;51.244;5.724;2022-11-21T04:30:49;9.70;75.80
68922;DHT22;55959;51.244;5.724;2022-11-21T04:33:16;9.70;75.80
68922;DHT22;55959;51.244;5.724;2022-11-21T04:35:43;9.60;75.80
68922;DHT22;55959;51.244;5.724;2022-11-21T04:38:09;9.60;75.90
68922;DHT22;55959;51.244;5.724;2022-11-21T04:40:36;9.60;76.00
68922;DHT22;55959;51.244;5.724;2022-11-21T04:43:02;9.60;76.10
68922;DHT22;55959;51.244;5.724;2022-11-21T04:45:28;9.60;76.20
68922;DHT22;55959;51.244;5.724;2022-11-21T04:47:55;9.60;76.10
68922;DHT22;55959;51.244;5.724;2022-11-21T04:50:21;9.60;76.00
68922;DHT22;55959;51.244;5.724;2022-11-21T04:52:49;9.50;76.00
68922;DHT22;55959;51.244;5.724;2022-11-21T04:55:21;9.50;76.90
68922;DHT22;55959;51.244;5.724;2022-11-21T04:57:48;9.50;76.00
68922;DHT22;55959;51.244;5.724;2022-11-21T05:00:15;9.50;76.00
68922;DHT22;55959;51.244;5.724;2022-11-21T05:02:42;9.50;76.00
68922;DHT22;55959;51.244;5.724;2022-11-21T05:05:08;9.40;76.10
68922;DHT22;55959;51.244;5.724;2022-11-21T05:07:34;9.40;76.10
68922;DHT22;55959;51.244;5.724;2022-11-21T05:10:00;9.40;76.10
68922;DHT22;55959;51.244;5.724;2022-11-21T05:12:26;9.40;76.20
68922;DHT22;55959;51.244;5.724;2022-11-21T05:15:10;9.40;76.20
68922;DHT22;55959;51.244;5.724;2022-11-21T05:17:36;9.40;76.40
68922;DHT22;55959;51.244;5.724;2022-11-21T05:20:02;9.30;76.40
68922;DHT22;55959;51.244;5.724;2022-11-21T05:22:28;9.30;76.60
68922;DHT22;55959;51.244;5.724;2022-11-21T05:24:54;9.30;76.80
68922;DHT22;55959;51.244;5.724;2022-11-21T05:27:19;9.30;77.00
68922;DHT22;55959;51.244;5.724;2022-11-21T05:29:45;9.30;77.00
68922;DHT22;55959;51.244;5.724;2022-11-21T05:32:11;9.30;77.20
68922;DHT22;55959;51.244;5.724;2022-11-21T05:34:38;9.30;77.30
68922;DHT22;55959;51.244;5.724;2022-11-21T05:37:04;9.30;77.40
68922;DHT22;55959;51.244;5.724;2022-11-21T05:39:30;9.40;77.50
68922;DHT22;55959;51.244;5.724;2022-11-21T05:41:55;9.40;77.60
68922;DHT22;55959;51.244;5.724;2022-11-21T05:44:21;9.40;77.70
68922;DHT22;55959;51.244;5.724;2022-11-21T05:46:47;9.40;77.90
68922;DHT22;55959;51.244;5.724;2022-11-21T05:49:13;9.40;78.10
68922;DHT22;55959;51.244;5.724;2022-11-21T05:51:38;9.40;78.20
68922;DHT22;55959;51.244;5.724;2022-11-21T05:54:04;9.40;78.20
68922;DHT22;55959;51.244;5.724;2022-11-21T05:56:30;9.40;78.40
68922;DHT22;55959;51.244;5.724;2022-11-21T05:58:57;9.40;78.40
68922;DHT22;55959;51.244;5.724;2022-11-21T06:01:23;9.40;78.50
68922;DHT22;55959;51.244;5.724;2022-11-21T06:04:09;9.40;78.60
68922;DHT22;55959;51.244;5.724;2022-11-21T06:06:35;9.40;78.60
68922;DHT22;55959;51.244;5.724;2022-11-21T06:09:02;9.40;78.60
68922;DHT22;55959;51.244;5.724;2022-11-21T06:11:28;9.40;78.60
68922;DHT22;55959;51.244;5.724;2022-11-21T06:13:54;9.50;78.70
68922;DHT22;55959;51.244;5.724;2022-11-21T06:16:20;9.40;78.70
68922;DHT22;55959;51.244;5.724;2022-11-21T06:18:48;9.50;78.80
68922;DHT22;55959;51.244;5.724;2022-11-21T06:21:21;9.50;78.80
68922;DHT22;55959;51.244;5.724;2022-11-21T06:23:53;9.50;78.80
68922;DHT22;55959;51.244;5.724;2022-11-21T06:26:24;9.50;78.80
68922;DHT22;55959;51.244;5.724;2022-11-21T06:28:51;9.50;78.80
68922;DHT22;55959;51.244;5.724;2022-11-21T06:31:22;9.50;78.80
68922;DHT22;55959;51.244;5.724;2022-11-21T06:33:57;9.50;78.80
68922;DHT22;55959;51.244;5.724;2022-11-21T06:36:23;9.50;78.90
68922;DHT22;55959;51.244;5.724;2022-11-21T06:38:52;9.50;78.90
68922;DHT22;55959;51.244;5.724;2022-11-21T06:41:24;9.40;78.90
68922;DHT22;55959;51.244;5.724;2022-11-21T06:43:51;9.50;79.00
68922;DHT22;55959;51.244;5.724;2022-11-21T06:46:17;9.40;78.90
68922;DHT22;55959;51.244;5.724;2022-11-21T06:48:43;9.40;78.90
68922;DHT22;55959;51.244;5.724;2022-11-21T06:51:15;9.40;78.90
68922;DHT22;55959;51.244;5.724;2022-11-21T06:53:42;9.40;78.90
68922;DHT22;55959;51.244;5.724;2022-11-21T06:56:08;9.50;79.00
68922;DHT22;55959;51.244;5.724;2022-11-21T06:58:35;9.50;79.00
68922;DHT22;55959;51.244;5.724;2022-11-21T07:01:09;9.50;79.00
68922;DHT22;55959;51.244;5.724;2022-11-21T07:03:35;9.50;79.00
68922;DHT22;55959;51.244;5.724;2022-11-21T07:06:02;9.50;79.00
68922;DHT22;55959;51.244;5.724;2022-11-21T07:08:29;9.40;78.90
68922;DHT22;55959;51.244;5.724;2022-11-21T07:11:00;9.50;79.00
68922;DHT22;55959;51.244;5.724;2022-11-21T07:13:26;9.50;79.00
68922;DHT22;55959;51.244;5.724;2022-11-21T07:15:54;9.50;79.00
68922;DHT22;55959;51.244;5.724;2022-11-21T07:18:25;9.50;78.90
68922;DHT22;55959;51.244;5.724;2022-11-21T07:20:51;9.50;78.80
68922;DHT22;55959;51.244;5.724;2022-11-21T07:23:17;9.50;78.90
68922;DHT22;55959;51.244;5.724;2022-11-21T07:25:42;9.50;78.90
68922;DHT22;55959;51.244;5.724;2022-11-21T07:28:08;9.50;79.00
68922;DHT22;55959;51.244;5.724;2022-11-21T07:30:35;9.50;78.90
68922;DHT22;55959;51.244;5.724;2022-11-21T07:33:03;9.50;78.90
68922;DHT22;55959;51.244;5.724;2022-11-21T07:35:30;9.50;78.80
68922;DHT22;55959;51.244;5.724;2022-11-21T07:37:56;9.60;78.90
68922;DHT22;55959;51.244;5.724;2022-11-21T07:40:22;9.60;78.80
68922;DHT22;55959;51.244;5.724;2022-11-21T07:42:48;9.60;78.80
68922;DHT22;55959;51.244;5.724;2022-11-21T07:45:14;9.60;78.80
68922;DHT22;55959;51.244;5.724;2022-11-21T07:47:41;9.60;78.60
68922;DHT22;55959;51.244;5.724;2022-11-21T07:50:09;9.60;78.60
68922;DHT22;55959;51.244;5.724;2022-11-21T07:52:36;9.60;78.60
68922;DHT22;55959;51.244;5.724;2022-11-21T07:55:02;9.60;78.70
68922;DHT22;55959;51.244;5.724;2022-11-21T07:57:30;9.60;78.70
68922;DHT22;55959;51.244;5.724;2022-11-21T07:59:57;9.60;78.80
68922;DHT22;55959;51.244;5.724;2022-11-21T08:02:25;9.60;78.80
68922;DHT22;55959;51.244;5.724;2022-11-21T08:04:51;9.60;78.80
68922;DHT22;55959;51.244;5.724;2022-11-21T08:07:19;9.60;78.80
68922;DHT22;55959;51.244;5.724;2022-11-21T08:09:46;9.60;79.00
68922;DHT22;55959;51.244;5.724;2022-11-21T08:12:12;9.60;79.00
68922;DHT22;55959;51.244;5.724;2022-11-21T08:14:39;9.70;79.10
68922;DHT22;55959;51.244;5.724;2022-11-21T08:17:05;9.70;79.10
68922;DHT22;55959;51.244;5.724;2022-11-21T08:19:31;9.70;79.00
68922;DHT22;55959;51.244;5.724;2022-11-21T08:21:58;9.70;79.00
68922;DHT22;55959;51.244;5.724;2022-11-21T08:24:24;9.70;79.00
68922;DHT22;55959;51.244;5.724;2022-11-21T08:26:50;9.80;78.90
68922;DHT22;55959;51.244;5.724;2022-11-21T08:29:16;9.80;78.80
68922;DHT22;55959;51.244;5.724;2022-11-21T08:31:43;9.80;78.70
68922;DHT22;55959;51.244;5.724;2022-11-21T08:34:10;9.80;78.70
68922;DHT22;55959;51.244;5.724;2022-11-21T08:36:36;9.80;78.50
68922;DHT22;55959;51.244;5.724;2022-11-21T08:39:03;9.80;78.50
68922;DHT22;55959;51.244;5.724;2022-11-21T08:41:29;9.80;78.30
68922;DHT22;55959;51.244;5.724;2022-11-21T08:44:13;9.80;78.20
68922;DHT22;55959;51.244;5.724;2022-11-21T08:46:39;9.80;78.10
68922;DHT22;55959;51.244;5.724;2022-11-21T08:49:06;9.80;78.10
68922;DHT22;55959;51.244;5.724;2022-11-21T08:51:33;9.80;78.00
68922;DHT22;55959;51.244;5.724;2022-11-21T08:53:59;9.80;78.10
68922;DHT22;55959;51.244;5.724;2022-11-21T08:56:25;9.80;78.00
68922;DHT22;55959;51.244;5.724;2022-11-21T08:58:51;9.80;78.00
68922;DHT22;55959;51.244;5.724;2022-11-21T09:01:17;9.80;78.00
68922;DHT22;55959;51.244;5.724;2022-11-21T09:03:43;9.80;78.10
68922;DHT22;55959;51.244;5.724;2022-11-21T09:06:08;9.80;78.10
68922;DHT22;55959;51.244;5.724;2022-11-21T09:08:34;9.70;78.20
68922;DHT22;55959;51.244;5.724;2022-11-21T09:11:07;9.80;78.30
68922;DHT22;55959;51.244;5.724;2022-11-21T09:13:35;9.80;78.30
68922;DHT22;55959;51.244;5.724;2022-11-21T09:16:02;9.70;78.30
68922;DHT22;55959;51.244;5.724;2022-11-21T09:18:50;9.70;78.20
68922;DHT22;55959;51.244;5.724;2022-11-21T09:21:17;9.70;78.40
68922;DHT22;55959;51.244;5.724;2022-11-21T09:23:44;9.70;78.40
68922;DHT22;55959;51.244;5.724;2022-11-21T09:26:10;9.70;78.60
68922;DHT22;55959;51.244;5.724;2022-11-21T09:28:36;9.70;78.60
68922;DHT22;55959;51.244;5.724;2022-11-21T09:31:03;9.80;78.60
68922;DHT22;55959;51.244;5.724;2022-11-21T09:33:30;9.80;78.60
68922;DHT22;55959;51.244;5.724;2022-11-21T09:35:59;9.80;78.70
68922;DHT22;55959;51.244;5.724;2022-11-21T09:38:26;9.80;78.90
68922;DHT22;55959;51.244;5.724;2022-11-21T09:41:08;9.80;78.80
68922;DHT22;55959;51.244;5.724;2022-11-21T09:47:16;9.90;78.80
68922;DHT22;55959;51.244;5.724;2022-11-21T09:55:50;10.00;78.50
68922;DHT22;55959;51.244;5.724;2022-11-21T09:58:35;10.00;78.50
68922;DHT22;55959;51.244;5.724;2022-11-21T10:01:03;10.00;78.40
68922;DHT22;55959;51.244;5.724;2022-11-21T10:03:40;10.00;78.30
68922;DHT22;55959;51.244;5.724;2022-11-21T10:24:17;10.20;78.00
68922;DHT22;55959;51.244;5.724;2022-11-21T10:29:58;10.30;77.90
68922;DHT22;55959;51.244;5.724;2022-11-21T10:32:35;10.30;77.90
68922;DHT22;55959;51.244;5.724;2022-11-21T10:38:02;10.50;78.00
68922;DHT22;55959;51.244;5.724;2022-11-21T10:46:08;10.60;77.90
68922;DHT22;55959;51.244;5.724;2022-11-21T10:48:33;10.70;77.90
68922;DHT22;55959;51.244;5.724;2022-11-21T10:53:37;10.80;77.90
68922;DHT22;55959;51.244;5.724;2022-11-21T10:56:23;10.90;77.50
68922;DHT22;55959;51.244;5.724;2022-11-21T10:58:52;10.90;77.10
68922;DHT22;55959;51.244;5.724;2022-11-21T11:06:35;11.10;76.20
68922;DHT22;55959;51.244;5.724;2022-11-21T11:09:01;11.10;75.80
68922;DHT22;55959;51.244;5.724;2022-11-21T11:11:28;11.20;75.30
68922;DHT22;55959;51.244;5.724;2022-11-21T11:13:57;11.20;74.90
68922;DHT22;55959;51.244;5.724;2022-11-21T11:16:29;11.20;74.50
68922;DHT22;55959;51.244;5.724;2022-11-21T11:18:57;11.20;74.20
68922;DHT22;55959;51.244;5.724;2022-11-21T11:29:25;11.40;73.70
68922;DHT22;55959;51.244;5.724;2022-11-21T11:40:20;11.50;73.20
68922;DHT22;55959;51.244;5.724;2022-11-21T11:52:01;11.50;72.30
68922;DHT22;55959;51.244;5.724;2022-11-21T11:54:34;11.60;72.20
68922;DHT22;55959;51.244;5.724;2022-11-21T11:57:09;11.60;72.00
68922;DHT22;55959;51.244;5.724;2022-11-21T11:59:42;11.60;71.70
68922;DHT22;55959;51.244;5.724;2022-11-21T12:04:52;11.70;71.60
68922;DHT22;55959;51.244;5.724;2022-11-21T12:07:33;11.70;71.50
68922;DHT22;55959;51.244;5.724;2022-11-21T12:10:19;11.70;71.20
68922;DHT22;55959;51.244;5.724;2022-11-21T12:12:54;11.70;70.70
68922;DHT22;55959;51.244;5.724;2022-11-21T12:15:37;11.70;70.50
68922;DHT22;55959;51.244;5.724;2022-11-21T12:23:50;11.60;69.80
68922;DHT22;55959;51.244;5.724;2022-11-21T12:26:33;11.60;70.10
68922;DHT22;55959;51.244;5.724;2022-11-21T12:29:31;11.60;69.80
68922;DHT22;55959;51.244;5.724;2022-11-21T12:32:19;11.60;69.70
68922;DHT22;55959;51.244;5.724;2022-11-21T12:35:14;11.60;69.70
68922;DHT22;55959;51.244;5.724;2022-11-21T12:44:25;11.60;70.20
68922;DHT22;55959;51.244;5.724;2022-11-21T12:47:14;11.70;70.30
68922;DHT22;55959;51.244;5.724;2022-11-21T12:50:26;11.70;70.20
68922;DHT22;55959;51.244;5.724;2022-11-21T12:53:40;11.80;70.30
68922;DHT22;55959;51.244;5.724;2022-11-21T12:59:24;11.70;70.30
68922;DHT22;55959;51.244;5.724;2022-11-21T13:02:25;11.70;70.30
68922;DHT22;55959;51.244;5.724;2022-11-21T13:04:53;11.80;70.30
68922;DHT22;55959;51.244;5.724;2022-11-21T13:07:22;11.80;70.10
68922;DHT22;55959;51.244;5.724;2022-11-21T13:09:52;11.80;70.30
68922;DHT22;55959;51.244;5.724;2022-11-21T13:12:29;11.80;70.30
68922;DHT22;55959;51.244;5.724;2022-11-21T13:17:57;11.80;70.10
68922;DHT22;55959;51.244;5.724;2022-11-21T13:20:38;11.80;70.20
68922;DHT22;55959;51.244;5.724;2022-11-21T13:25:58;11.80;70.00
68922;DHT22;55959;51.244;5.724;2022-11-21T13:28:29;11.80;69.70
68922;DHT22;55959;51.244;5.724;2022-11-21T13:30:58;11.80;69.90
68922;DHT22;55959;51.244;5.724;2022-11-21T13:36:04;11.90;70.00
68922;DHT22;55959;51.244;5.724;2022-11-21T13:47:08;12.00;70.30
68922;DHT22;55959;51.244;5.724;2022-11-21T13:49:50;12.00;70.20
68922;DHT22;55959;51.244;5.724;2022-11-21T13:55:14;12.00;69.90
68922;DHT22;55959;51.244;5.724;2022-11-21T14:01:08;12.10;69.90
68922;DHT22;55959;51.244;5.724;2022-11-21T14:06:38;12.00;69.60
68922;DHT22;55959;51.244;5.724;2022-11-21T14:09:22;12.00;69.70
68922;DHT22;55959;51.244;5.724;2022-11-21T14:12:02;12.10;69.60
68922;DHT22;55959;51.244;5.724;2022-11-21T14:14:39;12.10;69.50
68922;DHT22;55959;51.244;5.724;2022-11-21T14:17:19;12.10;69.50
68922;DHT22;55959;51.244;5.724;2022-11-21T14:20:17;12.10;69.50
68922;DHT22;55959;51.244;5.724;2022-11-21T14:23:14;12.10;69.70
68922;DHT22;55959;51.244;5.724;2022-11-21T14:25:49;12.10;69.50
68922;DHT22;55959;51.244;5.724;2022-11-21T14:28:27;12.10;69.40
68922;DHT22;55959;51.244;5.724;2022-11-21T14:31:09;12.10;69.30
68922;DHT22;55959;51.244;5.724;2022-11-21T14:33:37;12.10;69.10
68922;DHT22;55959;51.244;5.724;2022-11-21T14:36:16;12.10;69.10
68922;DHT22;55959;51.244;5.724;2022-11-21T14:38:55;12.20;68.70
68922;DHT22;55959;51.244;5.724;2022-11-21T14:46:32;12.10;68.20
68922;DHT22;55959;51.244;5.724;2022-11-21T14:52:15;12.10;68.00
68922;DHT22;55959;51.244;5.724;2022-11-21T14:54:54;12.10;68.00
68922;DHT22;55959;51.244;5.724;2022-11-21T14:57:35;12.00;67.90
68922;DHT22;55959;51.244;5.724;2022-11-21T15:00:05;12.00;68.00
68922;DHT22;55959;51.244;5.724;2022-11-21T15:02:32;12.00;67.80
68922;DHT22;55959;51.244;5.724;2022-11-21T15:05:04;12.00;67.90
68922;DHT22;55959;51.244;5.724;2022-11-21T15:07:39;12.00;67.80
68922;DHT22;55959;51.244;5.724;2022-11-21T15:10:15;12.00;67.90
68922;DHT22;55959;51.244;5.724;2022-11-21T15:15:30;12.00;67.70
68922;DHT22;55959;51.244;5.724;2022-11-21T15:18:13;12.00;67.70
68922;DHT22;55959;51.244;5.724;2022-11-21T15:20:46;12.00;67.60
68922;DHT22;55959;51.244;5.724;2022-11-21T15:25:57;12.00;67.60
68922;DHT22;55959;51.244;5.724;2022-11-21T15:28:25;12.00;67.50
68922;DHT22;55959;51.244;5.724;2022-11-21T15:31:17;12.00;67.40
68922;DHT22;55959;51.244;5.724;2022-11-21T15:34:03;12.00;67.50
68922;DHT22;55959;51.244;5.724;2022-11-21T15:36:31;11.90;67.40
68922;DHT22;55959;51.244;5.724;2022-11-21T15:39:05;11.90;67.50
68922;DHT22;55959;51.244;5.724;2022-11-21T15:41:35;11.90;67.50
68922;DHT22;55959;51.244;5.724;2022-11-21T15:46:28;11.90;67.10
68922;DHT22;55959;51.244;5.724;2022-11-21T15:48:59;11.90;67.20
68922;DHT22;55959;51.244;5.724;2022-11-21T15:51:36;11.90;67.20
68922;DHT22;55959;51.244;5.724;2022-11-21T15:54:11;11.90;67.20
68922;DHT22;55959;51.244;5.724;2022-11-21T15:56:40;11.90;67.10
68922;DHT22;55959;51.244;5.724;2022-11-21T15:59:07;11.90;67.20
68922;DHT22;55959;51.244;5.724;2022-11-21T16:01:33;11.80;67.20
68922;DHT22;55959;51.244;5.724;2022-11-21T16:04:02;11.80;67.30
68922;DHT22;55959;51.244;5.724;2022-11-21T16:06:29;11.80;67.20
68922;DHT22;55959;51.244;5.724;2022-11-21T16:08:56;11.80;67.20
68922;DHT22;55959;51.244;5.724;2022-11-21T16:11:26;11.80;67.30
68922;DHT22;55959;51.244;5.724;2022-11-21T16:13:59;11.80;67.10
68922;DHT22;55959;51.244;5.724;2022-11-21T16:16:28;11.80;67.20
68922;DHT22;55959;51.244;5.724;2022-11-21T16:18:56;11.80;67.30
68922;DHT22;55959;51.244;5.724;2022-11-21T16:21:22;11.80;67.20
68922;DHT22;55959;51.244;5.724;2022-11-21T16:23:49;11.80;67.30
68922;DHT22;55959;51.244;5.724;2022-11-21T16:26:15;11.80;67.30
68922;DHT22;55959;51.244;5.724;2022-11-21T16:28:42;11.80;67.40
68922;DHT22;55959;51.244;5.724;2022-11-21T16:31:20;11.80;67.50
68922;DHT22;55959;51.244;5.724;2022-11-21T16:33:47;11.80;67.70
68922;DHT22;55959;51.244;5.724;2022-11-21T16:36:18;11.80;67.80
68922;DHT22;55959;51.244;5.724;2022-11-21T16:38:45;11.80;67.70
68922;DHT22;55959;51.244;5.724;2022-11-21T16:41:11;11.80;67.80
68922;DHT22;55959;51.244;5.724;2022-11-21T16:43:44;11.80;67.70
68922;DHT22;55959;51.244;5.724;2022-11-21T16:46:12;11.80;67.70
68922;DHT22;55959;51.244;5.724;2022-11-21T16:48:38;11.80;67.70
68922;DHT22;55959;51.244;5.724;2022-11-21T16:51:17;11.80;67.60
68922;DHT22;55959;51.244;5.724;2022-11-21T16:53:45;11.80;67.60
68922;DHT22;55959;51.244;5.724;2022-11-21T16:56:12;11.80;67.50
68922;DHT22;55959;51.244;5.724;2022-11-21T16:58:39;11.80;67.60
68922;DHT22;55959;51.244;5.724;2022-11-21T17:01:13;11.80;67.60
68922;DHT22;55959;51.244;5.724;2022-11-21T17:03:44;11.70;67.50
68922;DHT22;55959;51.244;5.724;2022-11-21T17:06:12;11.70;67.60
68922;DHT22;55959;51.244;5.724;2022-11-21T17:08:39;11.70;67.60
68922;DHT22;55959;51.244;5.724;2022-11-21T17:11:15;11.70;67.60
68922;DHT22;55959;51.244;5.724;2022-11-21T17:13:43;11.70;67.70
68922;DHT22;55959;51.244;5.724;2022-11-21T17:16:10;11.60;67.70
68922;DHT22;55959;51.244;5.724;2022-11-21T17:18:37;11.60;67.80
68922;DHT22;55959;51.244;5.724;2022-11-21T17:21:11;11.60;67.90
68922;DHT22;55959;51.244;5.724;2022-11-21T17:23:40;11.60;67.90
68922;DHT22;55959;51.244;5.724;2022-11-21T17:26:10;11.60;68.10
68922;DHT22;55959;51.244;5.724;2022-11-21T17:28:37;11.60;68.10
68922;DHT22;55959;51.244;5.724;2022-11-21T17:31:07;11.50;68.10
68922;DHT22;55959;51.244;5.724;2022-11-21T17:33:34;11.50;68.20
68922;DHT22;55959;51.244;5.724;2022-11-21T17:36:04;11.50;68.30
68922;DHT22;55959;51.244;5.724;2022-11-21T17:38:31;11.50;68.40
68922;DHT22;55959;51.244;5.724;2022-11-21T17:41:01;11.50;68.40
68922;DHT22;55959;51.244;5.724;2022-11-21T17:43:28;11.50;68.50
68922;DHT22;55959;51.244;5.724;2022-11-21T17:45:58;11.40;68.50
68922;DHT22;55959;51.244;5.724;2022-11-21T17:48:25;11.50;68.60
68922;DHT22;55959;51.244;5.724;2022-11-21T17:51:07;11.40;68.70
68922;DHT22;55959;51.244;5.724;2022-11-21T17:53:38;11.40;68.80
68922;DHT22;55959;51.244;5.724;2022-11-21T17:56:06;11.40;68.80
68922;DHT22;55959;51.244;5.724;2022-11-21T17:58:34;11.40;68.90
68922;DHT22;55959;51.244;5.724;2022-11-21T18:01:02;11.40;69.00
68922;DHT22;55959;51.244;5.724;2022-11-21T18:03:29;11.40;69.10
68922;DHT22;55959;51.244;5.724;2022-11-21T18:06:06;11.40;69.20
68922;DHT22;55959;51.244;5.724;2022-11-21T18:08:35;11.40;69.30
68922;DHT22;55959;51.244;5.724;2022-11-21T18:11:06;11.40;69.50
68922;DHT22;55959;51.244;5.724;2022-11-21T18:13:33;11.40;69.60